sensor_id;sensor_type;location;lat;lon;timestamp;P1;durP1;ratioP1;P2;durP2;ratioP2
35128;SDS011;21301;43.626;10.580;2023-12-20T00:02:22;52.85;;;28.80;;
35128;SDS011;21301;43.626;10.580;2023-12-20T00:04:48;60.00;;;31.60;;
35128;SDS011;21301;43.626;10.580;2023-12-20T00:07:14;63.95;;;32.38;;
35128;SDS011;21301;43.626;10.580;2023-12-20T00:09:40;70.07;;;35.35;;
35128;SDS011;21301;43.626;10.580;2023-12-20T00:12:06;68.43;;;34.38;;
35128;SDS011;21301;43.626;10.580;2023-12-20T00:14:32;67.05;;;35.20;;
35128;SDS011;21301;43.626;10.580;2023-12-20T00:16:57;75.20;;;35.38;;
35128;SDS011;21301;43.626;10.580;2023-12-20T00:19:23;76.75;;;39.47;;
35128;SDS011;21301;43.626;10.580;2023-12-20T00:21:49;73.28;;;35.72;;
35128;SDS011;21301;43.626;10.580;2023-12-20T00:24:15;78.00;;;35.50;;
35128;SDS011;21301;43.626;10.580;2023-12-20T00:26:42;79.32;;;36.00;;
35128;SDS011;21301;43.626;10.580;2023-12-20T00:29:07;98.57;;;37.53;;
35128;SDS011;21301;43.626;10.580;2023-12-20T00:31:33;90.78;;;36.10;;
35128;SDS011;21301;43.626;10.580;2023-12-20T00:33:58;101.80;;;35.85;;
35128;SDS011;21301;43.626;10.580;2023-12-20T00:36:24;73.35;;;33.80;;
35128;SDS011;21301;43.626;10.580;2023-12-20T00:38:49;96.28;;;34.55;;
35128;SDS011;21301;43.626;10.580;2023-12-20T00:41:16;84.40;;;31.33;;
35128;SDS011;21301;43.626;10.580;2023-12-20T00:43:42;81.18;;;30.20;;
35128;SDS011;21301;43.626;10.580;2023-12-20T00:46:08;57.72;;;27.70;;
35128;SDS011;21301;43.626;10.580;2023-12-20T00:48:36;98.97;;;31.35;;
35128;SDS011;21301;43.626;10.580;2023-12-20T00:51:02;80.43;;;31.23;;
35128;SDS011;21301;43.626;10.580;2023-12-20T00:53:28;82.75;;;31.80;;
35128;SDS011;21301;43.626;10.580;2023-12-20T00:55:55;79.70;;;29.48;;
35128;SDS011;21301;43.626;10.580;2023-12-20T00:58:21;104.07;;;33.05;;
35128;SDS011;21301;43.626;10.580;2023-12-20T01:00:46;102.15;;;31.98;;
35128;SDS011;21301;43.626;10.580;2023-12-20T01:03:12;78.88;;;26.13;;
35128;SDS011;21301;43.626;10.580;2023-12-20T01:05:39;126.78;;;28.27;;
35128;SDS011;21301;43.626;10.580;2023-12-20T01:08:05;88.00;;;25.52;;
35128;SDS011;21301;43.626;10.580;2023-12-20T01:10:32;112.00;;;26.45;;
35128;SDS011;21301;43.626;10.580;2023-12-20T01:12:57;66.35;;;23.15;;
35128;SDS011;21301;43.626;10.580;2023-12-20T01:15:24;84.72;;;26.30;;
35128;SDS011;21301;43.626;10.580;2023-12-20T01:17:50;99.88;;;25.27;;
35128;SDS011;21301;43.626;10.580;2023-12-20T01:20:16;70.97;;;26.73;;
35128;SDS011;21301;43.626;10.580;2023-12-20T01:22:42;53.53;;;22.92;;
35128;SDS011;21301;43.626;10.580;2023-12-20T01:25:08;79.47;;;25.58;;
35128;SDS011;21301;43.626;10.580;2023-12-20T01:27:33;84.10;;;25.63;;
35128;SDS011;21301;43.626;10.580;2023-12-20T01:30:00;85.22;;;27.42;;
35128;SDS011;21301;43.626;10.580;2023-12-20T01:32:25;74.28;;;25.38;;
35128;SDS011;21301;43.626;10.580;2023-12-20T01:34:51;90.72;;;27.27;;
35128;SDS011;21301;43.626;10.580;2023-12-20T01:37:16;66.13;;;25.00;;
35128;SDS011;21301;43.626;10.580;2023-12-20T01:39:42;65.32;;;26.27;;
35128;SDS011;21301;43.626;10.580;2023-12-20T01:42:07;84.68;;;27.25;;
35128;SDS011;21301;43.626;10.580;2023-12-20T01:44:33;77.90;;;23.48;;
35128;SDS011;21301;43.626;10.580;2023-12-20T01:46:59;65.57;;;26.80;;
35128;SDS011;21301;43.626;10.580;2023-12-20T01:49:25;59.60;;;24.35;;
35128;SDS011;21301;43.626;10.580;2023-12-20T01:51:52;113.65;;;29.02;;
35128;SDS011;21301;43.626;10.580;2023-12-20T01:54:18;96.47;;;28.23;;
35128;SDS011;21301;43.626;10.580;2023-12-20T01:56:45;95.43;;;25.05;;
35128;SDS011;21301;43.626;10.580;2023-12-20T01:59:12;129.70;;;30.27;;
35128;SDS011;21301;43.626;10.580;2023-12-20T02:01:37;77.68;;;25.05;;
35128;SDS011;21301;43.626;10.580;2023-12-20T02:04:03;92.53;;;28.05;;
35128;SDS011;21301;43.626;10.580;2023-12-20T02:06:30;76.97;;;24.02;;
35128;SDS011;21301;43.626;10.580;2023-12-20T02:09:00;88.70;;;26.92;;
35128;SDS011;21301;43.626;10.580;2023-12-20T02:11:27;98.60;;;27.08;;
35128;SDS011;21301;43.626;10.580;2023-12-20T02:13:53;79.30;;;23.45;;
35128;SDS011;21301;43.626;10.580;2023-12-20T02:16:19;128.50;;;27.65;;
35128;SDS011;21301;43.626;10.580;2023-12-20T02:18:46;88.82;;;26.70;;
35128;SDS011;21301;43.626;10.580;2023-12-20T02:21:11;121.68;;;28.38;;
35128;SDS011;21301;43.626;10.580;2023-12-20T02:23:37;117.55;;;31.50;;
35128;SDS011;21301;43.626;10.580;2023-12-20T02:26:03;115.22;;;28.17;;
35128;SDS011;21301;43.626;10.580;2023-12-20T02:28:29;86.38;;;29.63;;
35128;SDS011;21301;43.626;10.580;2023-12-20T02:30:57;123.80;;;33.90;;
35128;SDS011;21301;43.626;10.580;2023-12-20T02:33:22;113.43;;;31.25;;
35128;SDS011;21301;43.626;10.580;2023-12-20T02:35:48;83.50;;;31.75;;
35128;SDS011;21301;43.626;10.580;2023-12-20T02:38:13;143.55;;;33.83;;
35128;SDS011;21301;43.626;10.580;2023-12-20T02:40:39;141.30;;;35.20;;
35128;SDS011;21301;43.626;10.580;2023-12-20T02:43:04;115.70;;;33.22;;
35128;SDS011;21301;43.626;10.580;2023-12-20T02:45:30;92.38;;;31.27;;
35128;SDS011;21301;43.626;10.580;2023-12-20T02:47:56;161.00;;;35.95;;
35128;SDS011;21301;43.626;10.580;2023-12-20T02:50:21;172.10;;;36.80;;
35128;SDS011;21301;43.626;10.580;2023-12-20T02:52:48;87.78;;;32.00;;
35128;SDS011;21301;43.626;10.580;2023-12-20T02:55:14;167.50;;;38.17;;
35128;SDS011;21301;43.626;10.580;2023-12-20T02:57:39;142.27;;;39.63;;
35128;SDS011;21301;43.626;10.580;2023-12-20T03:00:08;90.78;;;34.35;;
35128;SDS011;21301;43.626;10.580;2023-12-20T03:02:35;114.90;;;34.85;;
35128;SDS011;21301;43.626;10.580;2023-12-20T03:05:02;143.32;;;38.20;;
35128;SDS011;21301;43.626;10.580;2023-12-20T03:07:28;85.47;;;33.20;;
35128;SDS011;21301;43.626;10.580;2023-12-20T03:09:53;103.63;;;34.95;;
35128;SDS011;21301;43.626;10.580;2023-12-20T03:12:19;136.13;;;35.70;;
35128;SDS011;21301;43.626;10.580;2023-12-20T03:14:44;131.68;;;38.40;;
35128;SDS011;21301;43.626;10.580;2023-12-20T03:17:10;125.05;;;42.60;;
35128;SDS011;21301;43.626;10.580;2023-12-20T03:19:36;145.18;;;41.53;;
35128;SDS011;21301;43.626;10.580;2023-12-20T03:22:01;109.55;;;37.45;;
35128;SDS011;21301;43.626;10.580;2023-12-20T03:24:27;110.80;;;37.30;;
35128;SDS011;21301;43.626;10.580;2023-12-20T03:26:53;117.22;;;37.97;;
35128;SDS011;21301;43.626;10.580;2023-12-20T03:29:18;113.22;;;35.90;;
35128;SDS011;21301;43.626;10.580;2023-12-20T03:31:44;122.65;;;40.15;;
35128;SDS011;21301;43.626;10.580;2023-12-20T03:34:10;98.30;;;38.83;;
35128;SDS011;21301;43.626;10.580;2023-12-20T03:36:37;146.15;;;44.28;;
35128;SDS011;21301;43.626;10.580;2023-12-20T03:39:02;98.72;;;38.95;;
35128;SDS011;21301;43.626;10.580;2023-12-20T03:41:28;134.88;;;40.67;;
35128;SDS011;21301;43.626;10.580;2023-12-20T03:43:54;138.63;;;42.28;;
35128;SDS011;21301;43.626;10.580;2023-12-20T03:46:19;96.72;;;35.72;;
35128;SDS011;21301;43.626;10.580;2023-12-20T03:48:45;184.60;;;44.40;;
35128;SDS011;21301;43.626;10.580;2023-12-20T03:51:10;105.78;;;40.33;;
35128;SDS011;21301;43.626;10.580;2023-12-20T03:53:36;163.52;;;43.28;;
35128;SDS011;21301;43.626;10.580;2023-12-20T03:56:02;133.55;;;41.95;;
35128;SDS011;21301;43.626;10.580;2023-12-20T03:58:27;141.25;;;39.90;;
35128;SDS011;21301;43.626;10.580;2023-12-20T04:00:53;108.13;;;37.88;;
35128;SDS011;21301;43.626;10.580;2023-12-20T04:03:19;127.35;;;37.95;;
35128;SDS011;21301;43.626;10.580;2023-12-20T04:05:44;105.18;;;35.13;;
35128;SDS011;21301;43.626;10.580;2023-12-20T04:08:11;110.70;;;38.67;;
35128;SDS011;21301;43.626;10.580;2023-12-20T04:10:36;115.15;;;35.97;;
35128;SDS011;21301;43.626;10.580;2023-12-20T04:13:02;105.88;;;39.50;;
35128;SDS011;21301;43.626;10.580;2023-12-20T04:15:28;95.85;;;38.03;;
35128;SDS011;21301;43.626;10.580;2023-12-20T04:17:54;127.90;;;42.15;;
35128;SDS011;21301;43.626;10.580;2023-12-20T04:20:20;105.55;;;40.13;;
35128;SDS011;21301;43.626;10.580;2023-12-20T04:22:45;102.57;;;40.22;;
35128;SDS011;21301;43.626;10.580;2023-12-20T04:25:11;98.70;;;39.17;;
35128;SDS011;21301;43.626;10.580;2023-12-20T04:27:36;116.90;;;42.90;;
35128;SDS011;21301;43.626;10.580;2023-12-20T04:30:02;115.93;;;42.58;;
35128;SDS011;21301;43.626;10.580;2023-12-20T04:32:29;128.85;;;41.88;;
35128;SDS011;21301;43.626;10.580;2023-12-20T04:34:54;112.25;;;43.92;;
35128;SDS011;21301;43.626;10.580;2023-12-20T04:37:20;114.97;;;43.42;;
35128;SDS011;21301;43.626;10.580;2023-12-20T04:39:45;119.13;;;47.92;;
35128;SDS011;21301;43.626;10.580;2023-12-20T04:42:13;99.85;;;46.83;;
35128;SDS011;21301;43.626;10.580;2023-12-20T04:44:38;102.10;;;47.88;;
35128;SDS011;21301;43.626;10.580;2023-12-20T04:47:04;92.00;;;43.42;;
35128;SDS011;21301;43.626;10.580;2023-12-20T04:49:29;93.38;;;46.35;;
35128;SDS011;21301;43.626;10.580;2023-12-20T04:51:55;97.05;;;45.38;;
35128;SDS011;21301;43.626;10.580;2023-12-20T04:54:21;91.82;;;43.60;;
35128;SDS011;21301;43.626;10.580;2023-12-20T04:56:47;86.45;;;40.53;;
35128;SDS011;21301;43.626;10.580;2023-12-20T04:59:12;75.15;;;41.72;;
35128;SDS011;21301;43.626;10.580;2023-12-20T05:01:38;92.25;;;44.10;;
35128;SDS011;21301;43.626;10.580;2023-12-20T05:04:04;87.47;;;42.92;;
35128;SDS011;21301;43.626;10.580;2023-12-20T05:06:30;84.65;;;41.90;;
35128;SDS011;21301;43.626;10.580;2023-12-20T05:08:55;93.15;;;41.22;;
35128;SDS011;21301;43.626;10.580;2023-12-20T05:11:21;98.57;;;43.20;;
35128;SDS011;21301;43.626;10.580;2023-12-20T05:13:46;80.28;;;41.67;;
35128;SDS011;21301;43.626;10.580;2023-12-20T05:16:13;99.75;;;48.47;;
35128;SDS011;21301;43.626;10.580;2023-12-20T05:18:45;94.85;;;46.17;;
35128;SDS011;21301;43.626;10.580;2023-12-20T05:21:11;97.05;;;44.45;;
35128;SDS011;21301;43.626;10.580;2023-12-20T05:23:37;83.20;;;45.10;;
35128;SDS011;21301;43.626;10.580;2023-12-20T05:26:03;85.13;;;41.78;;
35128;SDS011;21301;43.626;10.580;2023-12-20T05:28:28;78.28;;;44.60;;
35128;SDS011;21301;43.626;10.580;2023-12-20T05:30:55;83.38;;;43.92;;
35128;SDS011;21301;43.626;10.580;2023-12-20T05:33:21;75.85;;;38.60;;
35128;SDS011;21301;43.626;10.580;2023-12-20T05:35:46;86.25;;;37.58;;
35128;SDS011;21301;43.626;10.580;2023-12-20T05:38:12;74.80;;;36.97;;
35128;SDS011;21301;43.626;10.580;2023-12-20T05:40:38;63.22;;;34.03;;
35128;SDS011;21301;43.626;10.580;2023-12-20T05:43:05;66.03;;;34.97;;
35128;SDS011;21301;43.626;10.580;2023-12-20T05:45:30;71.53;;;34.67;;
35128;SDS011;21301;43.626;10.580;2023-12-20T05:47:56;72.50;;;32.30;;
35128;SDS011;21301;43.626;10.580;2023-12-20T05:50:21;69.35;;;32.97;;
35128;SDS011;21301;43.626;10.580;2023-12-20T05:52:47;69.47;;;33.25;;
35128;SDS011;21301;43.626;10.580;2023-12-20T05:55:12;65.65;;;31.02;;
35128;SDS011;21301;43.626;10.580;2023-12-20T05:57:38;55.30;;;27.52;;
35128;SDS011;21301;43.626;10.580;2023-12-20T06:00:03;47.50;;;27.08;;
35128;SDS011;21301;43.626;10.580;2023-12-20T06:02:37;55.42;;;28.90;;
35128;SDS011;21301;43.626;10.580;2023-12-20T06:05:04;61.95;;;30.92;;
35128;SDS011;21301;43.626;10.580;2023-12-20T06:07:31;62.03;;;32.55;;
35128;SDS011;21301;43.626;10.580;2023-12-20T06:09:57;57.85;;;33.33;;
35128;SDS011;21301;43.626;10.580;2023-12-20T06:12:22;61.95;;;32.25;;
35128;SDS011;21301;43.626;10.580;2023-12-20T06:14:48;57.83;;;32.25;;
35128;SDS011;21301;43.626;10.580;2023-12-20T06:17:14;66.05;;;36.67;;
35128;SDS011;21301;43.626;10.580;2023-12-20T06:19:39;65.60;;;37.75;;
35128;SDS011;21301;43.626;10.580;2023-12-20T06:22:05;64.25;;;36.00;;
35128;SDS011;21301;43.626;10.580;2023-12-20T06:24:30;59.58;;;31.95;;
35128;SDS011;21301;43.626;10.580;2023-12-20T06:26:58;54.22;;;32.15;;
35128;SDS011;21301;43.626;10.580;2023-12-20T06:29:24;62.53;;;34.63;;
35128;SDS011;21301;43.626;10.580;2023-12-20T06:31:49;55.08;;;35.00;;
35128;SDS011;21301;43.626;10.580;2023-12-20T06:34:15;64.55;;;33.85;;
35128;SDS011;21301;43.626;10.580;2023-12-20T06:36:41;66.28;;;36.15;;
35128;SDS011;21301;43.626;10.580;2023-12-20T06:39:06;58.75;;;36.40;;
35128;SDS011;21301;43.626;10.580;2023-12-20T06:41:32;63.83;;;33.90;;
35128;SDS011;21301;43.626;10.580;2023-12-20T06:43:58;64.63;;;34.47;;
35128;SDS011;21301;43.626;10.580;2023-12-20T06:46:23;61.83;;;32.95;;
35128;SDS011;21301;43.626;10.580;2023-12-20T06:48:49;61.38;;;33.53;;
35128;SDS011;21301;43.626;10.580;2023-12-20T06:51:15;58.70;;;31.65;;
35128;SDS011;21301;43.626;10.580;2023-12-20T06:53:41;57.45;;;33.38;;
35128;SDS011;21301;43.626;10.580;2023-12-20T06:56:08;59.10;;;34.42;;
35128;SDS011;21301;43.626;10.580;2023-12-20T06:58:35;55.15;;;32.67;;
35128;SDS011;21301;43.626;10.580;2023-12-20T07:01:01;59.25;;;35.88;;
35128;SDS011;21301;43.626;10.580;2023-12-20T07:03:28;61.53;;;32.83;;
35128;SDS011;21301;43.626;10.580;2023-12-20T07:05:55;65.45;;;35.15;;
35128;SDS011;21301;43.626;10.580;2023-12-20T07:08:20;60.35;;;34.75;;
35128;SDS011;21301;43.626;10.580;2023-12-20T07:10:46;61.78;;;36.45;;
35128;SDS011;21301;43.626;10.580;2023-12-20T07:13:12;58.50;;;34.33;;
35128;SDS011;21301;43.626;10.580;2023-12-20T07:15:38;51.45;;;31.67;;
35128;SDS011;21301;43.626;10.580;2023-12-20T07:18:03;65.47;;;35.95;;
35128;SDS011;21301;43.626;10.580;2023-12-20T07:20:30;70.10;;;36.40;;
35128;SDS011;21301;43.626;10.580;2023-12-20T07:22:56;68.32;;;34.30;;
35128;SDS011;21301;43.626;10.580;2023-12-20T07:25:21;58.83;;;35.40;;
35128;SDS011;21301;43.626;10.580;2023-12-20T07:27:47;58.55;;;33.47;;
35128;SDS011;21301;43.626;10.580;2023-12-20T07:30:12;60.63;;;36.30;;
35128;SDS011;21301;43.626;10.580;2023-12-20T07:32:38;59.97;;;35.75;;
35128;SDS011;21301;43.626;10.580;2023-12-20T07:35:04;57.35;;;36.45;;
35128;SDS011;21301;43.626;10.580;2023-12-20T07:37:30;59.67;;;37.08;;
35128;SDS011;21301;43.626;10.580;2023-12-20T07:39:56;53.40;;;32.67;;
35128;SDS011;21301;43.626;10.580;2023-12-20T07:42:21;59.78;;;35.83;;
35128;SDS011;21301;43.626;10.580;2023-12-20T07:44:47;57.55;;;30.92;;
35128;SDS011;21301;43.626;10.580;2023-12-20T07:47:13;57.33;;;32.75;;
35128;SDS011;21301;43.626;10.580;2023-12-20T07:49:42;54.80;;;31.35;;
35128;SDS011;21301;43.626;10.580;2023-12-20T07:52:07;53.75;;;31.60;;
35128;SDS011;21301;43.626;10.580;2023-12-20T07:54:34;50.30;;;30.35;;
35128;SDS011;21301;43.626;10.580;2023-12-20T07:57:00;57.05;;;31.80;;
35128;SDS011;21301;43.626;10.580;2023-12-20T07:59:25;60.22;;;31.15;;
35128;SDS011;21301;43.626;10.580;2023-12-20T08:01:51;53.10;;;27.75;;
35128;SDS011;21301;43.626;10.580;2023-12-20T08:04:16;53.30;;;28.77;;
35128;SDS011;21301;43.626;10.580;2023-12-20T08:06:42;57.92;;;31.33;;
35128;SDS011;21301;43.626;10.580;2023-12-20T08:09:08;51.28;;;29.05;;
35128;SDS011;21301;43.626;10.580;2023-12-20T08:11:33;50.33;;;27.52;;
35128;SDS011;21301;43.626;10.580;2023-12-20T08:13:59;42.35;;;24.98;;
35128;SDS011;21301;43.626;10.580;2023-12-20T08:16:25;48.15;;;27.63;;
35128;SDS011;21301;43.626;10.580;2023-12-20T08:18:51;46.97;;;28.13;;
35128;SDS011;21301;43.626;10.580;2023-12-20T08:21:17;52.95;;;29.88;;
35128;SDS011;21301;43.626;10.580;2023-12-20T08:23:45;53.10;;;29.42;;
35128;SDS011;21301;43.626;10.580;2023-12-20T08:26:12;48.45;;;29.30;;
35128;SDS011;21301;43.626;10.580;2023-12-20T08:28:38;55.47;;;27.85;;
35128;SDS011;21301;43.626;10.580;2023-12-20T08:31:03;56.10;;;28.63;;
35128;SDS011;21301;43.626;10.580;2023-12-20T08:33:29;52.30;;;28.10;;
35128;SDS011;21301;43.626;10.580;2023-12-20T08:35:55;46.20;;;27.38;;
35128;SDS011;21301;43.626;10.580;2023-12-20T08:38:20;49.28;;;26.27;;
35128;SDS011;21301;43.626;10.580;2023-12-20T08:40:46;47.80;;;29.45;;
35128;SDS011;21301;43.626;10.580;2023-12-20T08:43:11;40.25;;;25.02;;
35128;SDS011;21301;43.626;10.580;2023-12-20T08:45:37;42.60;;;23.23;;
35128;SDS011;21301;43.626;10.580;2023-12-20T08:48:04;30.98;;;18.15;;
35128;SDS011;21301;43.626;10.580;2023-12-20T08:50:29;28.98;;;17.40;;
35128;SDS011;21301;43.626;10.580;2023-12-20T08:52:55;25.17;;;15.57;;
35128;SDS011;21301;43.626;10.580;2023-12-20T08:55:21;29.52;;;16.13;;
35128;SDS011;21301;43.626;10.580;2023-12-20T08:57:46;26.73;;;15.60;;
35128;SDS011;21301;43.626;10.580;2023-12-20T09:00:12;32.53;;;18.17;;
35128;SDS011;21301;43.626;10.580;2023-12-20T09:02:38;32.15;;;15.75;;
35128;SDS011;21301;43.626;10.580;2023-12-20T09:05:04;38.35;;;18.42;;
35128;SDS011;21301;43.626;10.580;2023-12-20T09:07:30;34.50;;;21.15;;
35128;SDS011;21301;43.626;10.580;2023-12-20T09:09:57;43.15;;;23.48;;
35128;SDS011;21301;43.626;10.580;2023-12-20T09:12:23;40.78;;;21.42;;
35128;SDS011;21301;43.626;10.580;2023-12-20T09:14:50;44.55;;;25.75;;
35128;SDS011;21301;43.626;10.580;2023-12-20T09:17:16;40.60;;;23.70;;
35128;SDS011;21301;43.626;10.580;2023-12-20T09:19:42;51.70;;;28.33;;
35128;SDS011;21301;43.626;10.580;2023-12-20T09:22:11;53.90;;;28.35;;
35128;SDS011;21301;43.626;10.580;2023-12-20T09:24:37;58.47;;;27.40;;
35128;SDS011;21301;43.626;10.580;2023-12-20T09:27:06;49.00;;;28.00;;
35128;SDS011;21301;43.626;10.580;2023-12-20T09:29:31;54.53;;;30.95;;
35128;SDS011;21301;43.626;10.580;2023-12-20T09:31:57;48.75;;;26.67;;
35128;SDS011;21301;43.626;10.580;2023-12-20T09:34:23;54.05;;;26.60;;
35128;SDS011;21301;43.626;10.580;2023-12-20T09:36:51;51.65;;;25.98;;
35128;SDS011;21301;43.626;10.580;2023-12-20T09:39:17;44.00;;;26.13;;
35128;SDS011;21301;43.626;10.580;2023-12-20T09:42:11;47.47;;;25.67;;
35128;SDS011;21301;43.626;10.580;2023-12-20T09:44:37;48.38;;;26.05;;
35128;SDS011;21301;43.626;10.580;2023-12-20T09:47:06;47.08;;;27.48;;
35128;SDS011;21301;43.626;10.580;2023-12-20T09:49:32;50.40;;;26.80;;
35128;SDS011;21301;43.626;10.580;2023-12-20T09:51:58;53.33;;;28.27;;
35128;SDS011;21301;43.626;10.580;2023-12-20T09:54:25;52.63;;;29.20;;
35128;SDS011;21301;43.626;10.580;2023-12-20T09:56:53;50.13;;;27.52;;
35128;SDS011;21301;43.626;10.580;2023-12-20T09:59:19;53.40;;;28.92;;
35128;SDS011;21301;43.626;10.580;2023-12-20T10:01:44;56.08;;;31.63;;
35128;SDS011;21301;43.626;10.580;2023-12-20T10:04:11;51.45;;;28.77;;
35128;SDS011;21301;43.626;10.580;2023-12-20T10:06:41;53.65;;;30.50;;
35128;SDS011;21301;43.626;10.580;2023-12-20T10:09:08;57.92;;;30.40;;
35128;SDS011;21301;43.626;10.580;2023-12-20T10:11:35;56.85;;;30.23;;
35128;SDS011;21301;43.626;10.580;2023-12-20T10:14:05;57.42;;;29.83;;
35128;SDS011;21301;43.626;10.580;2023-12-20T10:16:31;66.35;;;36.20;;
35128;SDS011;21301;43.626;10.580;2023-12-20T10:18:59;71.15;;;31.73;;
35128;SDS011;21301;43.626;10.580;2023-12-20T10:21:29;51.00;;;30.05;;
35128;SDS011;21301;43.626;10.580;2023-12-20T10:23:55;50.22;;;31.55;;
35128;SDS011;21301;43.626;10.580;2023-12-20T10:26:23;57.03;;;32.08;;
35128;SDS011;21301;43.626;10.580;2023-12-20T10:28:55;57.80;;;32.67;;
35128;SDS011;21301;43.626;10.580;2023-12-20T10:33:56;49.72;;;31.63;;
35128;SDS011;21301;43.626;10.580;2023-12-20T10:36:25;59.60;;;31.73;;
35128;SDS011;21301;43.626;10.580;2023-12-20T10:38:52;50.80;;;29.20;;
35128;SDS011;21301;43.626;10.580;2023-12-20T10:41:21;45.75;;;28.58;;
35128;SDS011;21301;43.626;10.580;2023-12-20T10:43:51;47.85;;;30.00;;
35128;SDS011;21301;43.626;10.580;2023-12-20T10:46:18;51.97;;;28.05;;
35128;SDS011;21301;43.626;10.580;2023-12-20T10:48:45;47.20;;;28.73;;
35128;SDS011;21301;43.626;10.580;2023-12-20T10:51:13;53.17;;;31.85;;
35128;SDS011;21301;43.626;10.580;2023-12-20T10:53:42;50.00;;;28.05;;
35128;SDS011;21301;43.626;10.580;2023-12-20T10:56:08;47.58;;;27.02;;
35128;SDS011;21301;43.626;10.580;2023-12-20T10:58:42;45.53;;;24.40;;
35128;SDS011;21301;43.626;10.580;2023-12-20T11:01:15;42.65;;;27.13;;
35128;SDS011;21301;43.626;10.580;2023-12-20T11:03:46;45.22;;;27.33;;
35128;SDS011;21301;43.626;10.580;2023-12-20T11:06:19;43.88;;;27.38;;
35128;SDS011;21301;43.626;10.580;2023-12-20T11:09:06;52.35;;;28.10;;
35128;SDS011;21301;43.626;10.580;2023-12-20T11:14:06;48.90;;;26.02;;
35128;SDS011;21301;43.626;10.580;2023-12-20T11:16:37;48.88;;;29.05;;
35128;SDS011;21301;43.626;10.580;2023-12-20T11:19:06;48.42;;;27.63;;
35128;SDS011;21301;43.626;10.580;2023-12-20T11:21:32;43.45;;;28.92;;
35128;SDS011;21301;43.626;10.580;2023-12-20T11:23:58;37.50;;;23.92;;
35128;SDS011;21301;43.626;10.580;2023-12-20T11:26:29;46.78;;;27.17;;
35128;SDS011;21301;43.626;10.580;2023-12-20T11:29:28;46.15;;;27.83;;
35128;SDS011;21301;43.626;10.580;2023-12-20T11:31:56;41.65;;;24.70;;
35128;SDS011;21301;43.626;10.580;2023-12-20T11:34:22;43.58;;;24.20;;
35128;SDS011;21301;43.626;10.580;2023-12-20T11:36:47;45.95;;;26.92;;
35128;SDS011;21301;43.626;10.580;2023-12-20T11:39:17;40.95;;;26.38;;
35128;SDS011;21301;43.626;10.580;2023-12-20T11:41:46;46.45;;;26.52;;
35128;SDS011;21301;43.626;10.580;2023-12-20T11:44:14;50.25;;;26.85;;
35128;SDS011;21301;43.626;10.580;2023-12-20T11:46:44;44.25;;;27.40;;
35128;SDS011;21301;43.626;10.580;2023-12-20T11:49:09;44.28;;;28.10;;
35128;SDS011;21301;43.626;10.580;2023-12-20T11:51:35;48.67;;;27.75;;
35128;SDS011;21301;43.626;10.580;2023-12-20T11:54:00;49.25;;;28.48;;
35128;SDS011;21301;43.626;10.580;2023-12-20T11:56:26;44.97;;;25.35;;
35128;SDS011;21301;43.626;10.580;2023-12-20T11:58:51;43.97;;;25.77;;
35128;SDS011;21301;43.626;10.580;2023-12-20T12:01:19;42.50;;;26.05;;
35128;SDS011;21301;43.626;10.580;2023-12-20T12:03:46;41.00;;;25.05;;
35128;SDS011;21301;43.626;10.580;2023-12-20T12:06:12;41.83;;;25.90;;
35128;SDS011;21301;43.626;10.580;2023-12-20T12:08:38;36.03;;;22.77;;
35128;SDS011;21301;43.626;10.580;2023-12-20T12:11:03;36.40;;;20.77;;
35128;SDS011;21301;43.626;10.580;2023-12-20T12:13:29;31.35;;;18.70;;
35128;SDS011;21301;43.626;10.580;2023-12-20T12:15:55;33.45;;;19.15;;
35128;SDS011;21301;43.626;10.580;2023-12-20T12:18:21;30.50;;;17.92;;
35128;SDS011;21301;43.626;10.580;2023-12-20T12:20:46;31.15;;;19.38;;
35128;SDS011;21301;43.626;10.580;2023-12-20T12:23:12;30.27;;;20.08;;
35128;SDS011;21301;43.626;10.580;2023-12-20T12:25:39;34.35;;;20.95;;
35128;SDS011;21301;43.626;10.580;2023-12-20T12:28:05;36.17;;;21.17;;
35128;SDS011;21301;43.626;10.580;2023-12-20T12:30:31;34.17;;;20.13;;
35128;SDS011;21301;43.626;10.580;2023-12-20T12:32:56;37.33;;;21.30;;
35128;SDS011;21301;43.626;10.580;2023-12-20T12:35:23;34.28;;;22.05;;
35128;SDS011;21301;43.626;10.580;2023-12-20T12:37:48;33.88;;;23.02;;
35128;SDS011;21301;43.626;10.580;2023-12-20T12:40:16;36.05;;;23.65;;
35128;SDS011;21301;43.626;10.580;2023-12-20T12:42:43;38.50;;;23.20;;
35128;SDS011;21301;43.626;10.580;2023-12-20T12:45:09;46.55;;;22.85;;
35128;SDS011;21301;43.626;10.580;2023-12-20T12:47:36;37.28;;;23.63;;
35128;SDS011;21301;43.626;10.580;2023-12-20T12:50:03;34.13;;;20.95;;
35128;SDS011;21301;43.626;10.580;2023-12-20T12:52:30;39.78;;;21.77;;
35128;SDS011;21301;43.626;10.580;2023-12-20T12:54:57;40.65;;;22.27;;
35128;SDS011;21301;43.626;10.580;2023-12-20T12:57:23;32.97;;;23.00;;
35128;SDS011;21301;43.626;10.580;2023-12-20T12:59:49;34.08;;;20.88;;
35128;SDS011;21301;43.626;10.580;2023-12-20T13:02:15;36.83;;;22.00;;
35128;SDS011;21301;43.626;10.580;2023-12-20T13:04:41;39.08;;;23.80;;
35128;SDS011;21301;43.626;10.580;2023-12-20T13:07:10;35.25;;;23.13;;
35128;SDS011;21301;43.626;10.580;2023-12-20T13:09:36;34.42;;;21.33;;
35128;SDS011;21301;43.626;10.580;2023-12-20T13:12:03;35.78;;;20.85;;
35128;SDS011;21301;43.626;10.580;2023-12-20T13:14:31;32.92;;;20.95;;
35128;SDS011;21301;43.626;10.580;2023-12-20T13:16:58;36.92;;;23.75;;
35128;SDS011;21301;43.626;10.580;2023-12-20T13:19:24;42.53;;;25.13;;
35128;SDS011;21301;43.626;10.580;2023-12-20T13:21:49;45.13;;;25.98;;
35128;SDS011;21301;43.626;10.580;2023-12-20T13:24:15;43.63;;;25.92;;
35128;SDS011;21301;43.626;10.580;2023-12-20T13:26:40;40.03;;;23.45;;
35128;SDS011;21301;43.626;10.580;2023-12-20T13:29:06;43.13;;;25.83;;
35128;SDS011;21301;43.626;10.580;2023-12-20T13:31:32;43.33;;;27.10;;
35128;SDS011;21301;43.626;10.580;2023-12-20T13:33:58;38.70;;;23.73;;
35128;SDS011;21301;43.626;10.580;2023-12-20T13:36:23;39.97;;;26.05;;
35128;SDS011;21301;43.626;10.580;2023-12-20T13:38:49;41.17;;;26.15;;
35128;SDS011;21301;43.626;10.580;2023-12-20T13:41:16;41.25;;;26.65;;
35128;SDS011;21301;43.626;10.580;2023-12-20T13:43:42;42.63;;;26.40;;
35128;SDS011;21301;43.626;10.580;2023-12-20T13:46:08;39.80;;;26.45;;
35128;SDS011;21301;43.626;10.580;2023-12-20T13:48:33;42.13;;;25.40;;
35128;SDS011;21301;43.626;10.580;2023-12-20T13:50:59;44.42;;;27.77;;
35128;SDS011;21301;43.626;10.580;2023-12-20T13:53:25;42.08;;;26.45;;
35128;SDS011;21301;43.626;10.580;2023-12-20T13:55:50;39.05;;;25.13;;
35128;SDS011;21301;43.626;10.580;2023-12-20T13:58:16;51.67;;;27.70;;
35128;SDS011;21301;43.626;10.580;2023-12-20T14:00:42;52.95;;;27.90;;
35128;SDS011;21301;43.626;10.580;2023-12-20T14:03:07;46.28;;;26.52;;
35128;SDS011;21301;43.626;10.580;2023-12-20T14:05:35;46.38;;;27.13;;
35128;SDS011;21301;43.626;10.580;2023-12-20T14:08:01;46.25;;;26.83;;